createdAt,value
2017-04-18T00:00:46.232Z,11.72
2017-04-18T00:01:45.380Z,13.57
2017-04-18T00:02:44.508Z,11.98
2017-04-18T00:03:43.635Z,13.93
2017-04-18T00:04:42.812Z,11.95
2017-04-18T00:05:42.679Z,12.52
2017-04-18T00:06:41.807Z,11.53
2017-04-18T00:07:41.684Z,12.62
2017-04-18T00:08:40.862Z,10.95
2017-04-18T00:09:40.027Z,12.15
2017-04-18T00:10:39.208Z,12.37
2017-04-18T00:11:38.333Z,13.87
2017-04-18T00:12:37.472Z,15.47
2017-04-18T00:13:36.691Z,14.15
2017-04-18T00:14:35.844Z,14.95
2017-04-18T00:15:35.048Z,14.67
2017-04-18T00:16:34.205Z,16.08
2017-04-18T00:17:33.349Z,16.12
2017-04-18T00:18:32.480Z,14.63
2017-04-18T00:19:31.606Z,14.52
2017-04-18T00:20:31.504Z,15.22
2017-04-18T00:21:30.636Z,17.18
2017-04-18T00:22:30.510Z,12.48
2017-04-18T00:23:29.640Z,17.00
2017-04-18T00:24:28.764Z,15.05
2017-04-18T00:25:27.875Z,15.43
2017-04-18T00:26:26.997Z,13.40
2017-04-18T00:27:26.116Z,14.42
2017-04-18T00:28:25.253Z,15.78
2017-04-18T00:29:25.111Z,13.78
2017-04-18T00:30:24.243Z,14.68
2017-04-18T00:31:24.109Z,14.47
2017-04-18T00:32:23.239Z,15.75
2017-04-18T00:33:23.100Z,12.78
2017-04-18T00:34:22.276Z,13.47
2017-04-18T00:35:21.408Z,13.75
2017-04-18T00:36:20.584Z,14.62
2017-04-18T00:37:19.736Z,12.93
2017-04-18T00:38:18.874Z,12.10
2017-04-18T00:39:18.765Z,12.82
2017-04-18T00:40:17.923Z,11.63
2017-04-18T00:41:17.069Z,11.68
2017-04-18T00:42:16.203Z,11.93
2017-04-18T00:43:15.319Z,9.90
2017-04-18T00:44:15.187Z,10.45
2017-04-18T00:45:14.365Z,10.65
2017-04-18T00:46:13.480Z,9.53
2017-04-18T00:47:12.608Z,8.62
2017-04-18T00:48:11.732Z,8.72
2017-04-18T00:49:10.860Z,9.20
2017-04-18T00:50:09.998Z,8.00
2017-04-18T00:51:09.132Z,7.97
2017-04-18T00:52:08.980Z,9.15
2017-04-18T00:53:08.077Z,7.32
2017-04-18T00:54:07.179Z,7.13
2017-04-18T00:55:06.284Z,9.85
2017-04-18T00:56:06.146Z,9.88
2017-04-18T00:57:05.248Z,8.03
2017-04-18T00:58:04.357Z,7.37
2017-04-18T00:59:04.204Z,8.55
2017-04-18T01:00:03.354Z,8.98
2017-04-18T01:01:02.472Z,8.42
2017-04-18T01:02:01.664Z,7.47
2017-04-18T01:03:00.755Z,8.78
2017-04-18T01:03:59.857Z,8.62
2017-04-18T01:04:58.958Z,9.17
2017-04-18T01:05:58.072Z,8.38
2017-04-18T01:06:57.213Z,8.03
2017-04-18T01:07:56.323Z,7.77
2017-04-18T01:08:55.422Z,7.50
2017-04-18T01:09:54.544Z,8.37
2017-04-18T01:10:53.756Z,7.05
2017-04-18T01:11:52.921Z,7.87
2017-04-18T01:12:52.025Z,7.45
2017-04-18T01:13:51.127Z,7.63
2017-04-18T01:14:50.232Z,7.57
2017-04-18T01:15:50.077Z,7.33
2017-04-18T01:16:49.168Z,6.82
2017-04-18T01:17:48.293Z,7.67
2017-04-18T01:18:47.391Z,7.37
2017-04-18T01:19:46.520Z,8.07
2017-04-18T01:20:45.616Z,6.60
2017-04-18T01:21:44.736Z,7.72
2017-04-18T01:22:43.852Z,6.93
2017-04-18T01:23:42.988Z,7.40
2017-04-18T01:24:42.091Z,6.62
2017-04-18T01:25:41.200Z,7.62
2017-04-18T01:26:41.044Z,6.70
2017-04-18T01:27:40.433Z,7.25
2017-04-18T01:28:39.583Z,6.88
2017-04-18T01:29:38.688Z,8.70
2017-04-18T01:30:37.855Z,9.18
2017-04-18T01:31:37.704Z,6.80
2017-04-18T01:32:37.140Z,8.58
2017-04-18T01:33:36.273Z,9.12
2017-04-18T01:34:35.600Z,8.75
2017-04-18T01:35:34.704Z,8.30
2017-04-18T01:36:34.551Z,9.58
2017-04-18T01:37:33.655Z,8.55
2017-04-18T01:38:33.026Z,8.45
2017-04-18T01:39:32.126Z,9.05
2017-04-18T01:40:36.660Z,9.12
2017-04-18T01:41:41.136Z,9.37
2017-04-18T01:42:45.728Z,10.77
2017-04-18T01:44:47.891Z,8.30
2017-04-18T01:45:52.349Z,8.30
2017-04-18T01:46:51.433Z,8.88
2017-04-18T01:47:50.531Z,9.68
2017-04-18T01:48:49.611Z,9.47
2017-04-18T01:49:48.791Z,8.83
2017-04-18T01:50:47.908Z,8.65
2017-04-18T01:51:46.992Z,7.67
2017-04-18T01:52:46.081Z,8.72
2017-04-18T01:53:45.909Z,8.05
2017-04-18T01:54:45.024Z,8.13
2017-04-18T01:55:44.109Z,8.23
2017-04-18T01:56:44.179Z,8.30
2017-04-18T01:57:43.267Z,8.43
2017-04-18T01:58:42.370Z,7.57
2017-04-18T01:59:41.456Z,7.97
2017-04-18T02:00:40.607Z,8.58
2017-04-18T02:01:39.758Z,8.10
2017-04-18T02:02:38.842Z,8.00
2017-04-18T02:03:37.929Z,9.03
2017-04-18T02:04:37.013Z,8.52
2017-04-18T02:05:36.123Z,8.27
2017-04-18T02:06:35.247Z,7.62
2017-04-18T02:07:34.344Z,8.48
2017-04-18T02:08:33.555Z,7.82
2017-04-18T02:09:32.651Z,8.25
2017-04-18T02:10:31.772Z,9.02
2017-04-18T02:11:30.931Z,8.05
2017-04-18T02:12:30.006Z,7.08
2017-04-18T02:13:29.098Z,7.58
2017-04-18T02:14:29.297Z,7.52
2017-04-18T02:15:28.421Z,7.07
2017-04-18T02:16:28.264Z,8.30
2017-04-18T02:17:27.345Z,6.90
2017-04-18T02:18:26.436Z,8.30
2017-04-18T02:19:25.520Z,8.30
2017-04-18T02:20:24.600Z,6.73
2017-04-18T02:21:23.705Z,6.83
2017-04-18T02:22:22.799Z,8.65
2017-04-18T02:23:21.884Z,9.35
2017-04-18T02:24:20.965Z,8.00
2017-04-18T02:25:20.049Z,6.88
2017-04-18T02:26:19.143Z,7.65
2017-04-18T02:27:18.244Z,7.13
2017-04-18T02:28:17.324Z,7.67
2017-04-18T02:29:16.409Z,7.10
2017-04-18T02:30:15.488Z,6.85
2017-04-18T02:31:14.575Z,6.28
2017-04-18T02:32:13.672Z,7.23
2017-04-18T02:33:12.769Z,8.93
2017-04-18T02:34:11.856Z,7.98
2017-04-18T02:35:11.694Z,7.80
2017-04-18T02:36:10.804Z,8.28
2017-04-18T02:37:09.890Z,7.05
2017-04-18T02:38:09.001Z,6.57
2017-04-18T02:39:08.078Z,7.92
2017-04-18T02:40:07.905Z,7.13
2017-04-18T02:41:07.009Z,8.08
2017-04-18T02:42:06.104Z,6.92
2017-04-18T02:43:05.195Z,6.97
2017-04-18T02:44:04.340Z,6.28
2017-04-18T02:45:04.167Z,6.73
2017-04-18T02:46:03.270Z,7.97
2017-04-18T02:47:02.363Z,6.67
2017-04-18T02:48:01.462Z,7.60
2017-04-18T02:49:00.568Z,6.32
2017-04-18T02:49:59.649Z,7.85
2017-04-18T02:50:58.799Z,6.73
2017-04-18T02:51:57.876Z,5.53
2017-04-18T02:52:56.969Z,6.50
2017-04-18T02:53:56.057Z,6.03
2017-04-18T02:54:55.160Z,7.40
2017-04-18T02:55:54.244Z,6.98
2017-04-18T02:56:53.336Z,6.58
2017-04-18T02:57:52.424Z,7.00
2017-04-18T02:58:51.743Z,6.98
2017-04-18T02:59:51.824Z,5.92
2017-04-18T03:00:50.911Z,6.68
2017-04-18T03:01:49.988Z,6.87
2017-04-18T03:02:49.067Z,6.57
2017-04-18T03:03:48.161Z,6.48
2017-04-18T03:04:47.251Z,6.95
2017-04-18T03:05:46.348Z,5.68
2017-04-18T03:06:46.264Z,5.98
2017-04-18T03:07:45.417Z,7.05
2017-04-18T03:08:44.512Z,6.70
2017-04-18T03:09:44.381Z,7.62
2017-04-18T03:10:43.489Z,6.75
2017-04-18T03:11:42.573Z,7.50
2017-04-18T03:12:41.654Z,7.28
2017-04-18T03:13:40.732Z,7.65
2017-04-18T03:14:39.816Z,7.97
2017-04-18T03:15:38.916Z,7.68
2017-04-18T03:16:38.032Z,7.47
2017-04-18T03:17:37.153Z,6.62
2017-04-18T03:18:36.241Z,6.88
2017-04-18T03:19:35.336Z,7.82
2017-04-18T03:20:34.419Z,8.72
2017-04-18T03:21:33.528Z,7.88
2017-04-18T03:22:32.611Z,7.22
2017-04-18T03:23:31.804Z,8.45
2017-04-18T03:24:30.888Z,7.85
2017-04-18T03:25:29.977Z,7.37
2017-04-18T03:26:29.056Z,8.00
2017-04-18T03:27:28.160Z,7.85
2017-04-18T03:28:27.235Z,7.17
2017-04-18T03:29:26.326Z,8.85
2017-04-18T03:30:25.430Z,6.57
2017-04-18T03:31:24.513Z,7.70
2017-04-18T03:32:23.624Z,6.10
2017-04-18T03:33:22.708Z,6.20
2017-04-18T03:34:21.820Z,7.65
2017-04-18T03:35:20.899Z,7.08
2017-04-18T03:36:20.046Z,7.13
2017-04-18T03:37:19.899Z,7.88
2017-04-18T03:38:18.980Z,7.55
2017-04-18T03:39:18.082Z,7.20
2017-04-18T03:40:17.168Z,6.05
2017-04-18T03:41:16.256Z,7.50
2017-04-18T03:42:15.340Z,6.73
2017-04-18T03:43:14.444Z,6.30
2017-04-18T03:44:13.520Z,6.73
2017-04-18T03:45:12.591Z,5.77
2017-04-18T03:46:11.675Z,5.80
2017-04-18T03:47:10.760Z,5.60
2017-04-18T03:48:09.872Z,6.82
2017-04-18T03:49:08.965Z,5.77
2017-04-18T03:50:08.792Z,6.43
2017-04-18T03:51:07.904Z,6.72
2017-04-18T03:52:06.996Z,6.15
2017-04-18T03:53:06.096Z,5.75
2017-04-18T03:54:05.207Z,4.60
2017-04-18T03:55:04.303Z,5.80
2017-04-18T03:56:04.152Z,5.13
2017-04-18T03:57:03.251Z,5.47
2017-04-18T03:58:02.352Z,4.57
2017-04-18T03:59:01.468Z,5.30
2017-04-18T04:00:00.581Z,6.35
2017-04-18T04:00:59.764Z,5.25
2017-04-18T04:01:58.931Z,5.43
2017-04-18T04:02:58.047Z,5.43
2017-04-18T04:03:57.216Z,4.38
2017-04-18T04:04:56.360Z,6.23
2017-04-18T04:05:55.468Z,5.27
2017-04-18T04:06:55.307Z,5.82
2017-04-18T04:07:54.408Z,4.83
2017-04-18T04:08:53.500Z,6.67
2017-04-18T04:09:52.836Z,5.70
2017-04-18T04:10:52.692Z,5.30
2017-04-18T04:11:51.815Z,5.73
2017-04-18T04:12:51.684Z,6.60
2017-04-18T04:13:50.779Z,5.10
2017-04-18T04:14:49.885Z,5.13
2017-04-18T04:15:49.020Z,5.27
2017-04-18T04:16:48.123Z,4.60
2017-04-18T04:17:47.212Z,4.40
2017-04-18T04:18:46.305Z,6.03
2017-04-18T04:19:45.412Z,5.05
2017-04-18T04:20:45.292Z,5.62
2017-04-18T04:21:44.396Z,5.62
2017-04-18T04:22:43.487Z,5.40
2017-04-18T04:23:43.327Z,5.22
2017-04-18T04:24:42.429Z,5.73
2017-04-18T04:25:41.527Z,5.73
2017-04-18T04:26:40.643Z,5.83
2017-04-18T04:27:40.486Z,4.95
2017-04-18T04:28:39.888Z,5.57
2017-04-18T04:29:39.044Z,5.45
2017-04-18T04:30:38.145Z,5.63
2017-04-18T04:31:37.280Z,5.55
2017-04-18T04:32:36.421Z,5.73
2017-04-18T04:33:35.525Z,5.58
2017-04-18T04:34:34.811Z,5.25
2017-04-18T04:35:34.292Z,5.97
2017-04-18T04:36:33.391Z,6.08
2017-04-18T04:37:32.535Z,7.62
2017-04-18T04:38:32.393Z,6.90
2017-04-18T04:39:31.491Z,5.85
2017-04-18T04:40:30.588Z,6.58
2017-04-18T04:41:29.757Z,6.65
2017-04-18T04:42:28.872Z,6.20
2017-04-18T04:43:28.716Z,7.27
2017-04-18T04:44:27.811Z,6.37
2017-04-18T04:45:26.956Z,7.77
2017-04-18T04:46:26.796Z,6.47
2017-04-18T04:47:25.916Z,6.53
2017-04-18T04:48:25.020Z,6.33
2017-04-18T04:49:24.861Z,7.45
2017-04-18T04:50:23.967Z,5.85
2017-04-18T04:51:23.044Z,7.62
2017-04-18T04:52:22.156Z,8.45
2017-04-18T04:53:21.231Z,8.63
2017-04-18T04:54:20.320Z,7.77
2017-04-18T04:55:19.401Z,8.95
2017-04-18T04:56:18.536Z,8.37
2017-04-18T04:57:17.713Z,9.07
2017-04-18T04:58:17.584Z,10.97
2017-04-18T04:59:16.704Z,9.48
2017-04-18T05:00:15.804Z,8.77
2017-04-18T05:01:14.935Z,9.95
2017-04-18T05:02:14.041Z,10.23
2017-04-18T05:03:13.180Z,9.70
2017-04-18T05:04:12.290Z,9.73
2017-04-18T05:05:11.396Z,10.22
2017-04-18T05:06:10.492Z,8.97
2017-04-18T05:07:09.597Z,10.93
2017-04-18T05:08:08.719Z,8.88
2017-04-18T05:09:07.831Z,8.90
2017-04-18T05:10:06.970Z,9.13
2017-04-18T05:11:06.080Z,10.57
2017-04-18T05:12:05.197Z,8.35
2017-04-18T05:13:04.316Z,9.02
2017-04-18T05:14:03.732Z,9.50
2017-04-18T05:15:02.841Z,10.57
2017-04-18T05:16:01.976Z,8.57
2017-04-18T05:17:01.079Z,9.60
2017-04-18T05:18:00.184Z,9.65
2017-04-18T05:18:59.297Z,8.68
2017-04-18T05:19:58.421Z,8.08
2017-04-18T05:20:57.524Z,8.73
2017-04-18T05:21:56.716Z,8.25
2017-04-18T05:22:55.829Z,8.72
2017-04-18T05:23:54.928Z,8.62
2017-04-18T05:24:54.276Z,8.12
2017-04-18T05:25:53.387Z,8.63
2017-04-18T05:26:52.496Z,8.63
2017-04-18T05:27:51.600Z,8.32
2017-04-18T05:28:51.436Z,9.17
2017-04-18T05:29:50.532Z,8.35
2017-04-18T05:30:49.649Z,7.47
2017-04-18T05:31:48.756Z,8.43
2017-04-18T05:32:48.596Z,8.02
2017-04-18T05:33:47.720Z,8.95
2017-04-18T05:34:46.818Z,8.95
2017-04-18T05:35:46.289Z,8.37
2017-04-18T05:36:45.387Z,7.78
2017-04-18T05:37:44.488Z,7.87
2017-04-18T05:38:43.646Z,8.15
2017-04-18T05:39:42.736Z,7.92
2017-04-18T05:40:41.840Z,7.60
2017-04-18T05:41:40.947Z,7.32
2017-04-18T05:42:40.050Z,7.17
2017-04-18T05:43:39.161Z,7.85
2017-04-18T05:44:38.271Z,7.80
2017-04-18T05:45:37.383Z,7.70
2017-04-18T05:46:37.257Z,6.53
2017-04-18T05:47:36.367Z,7.87
2017-04-18T05:48:36.212Z,7.32
2017-04-18T05:49:35.313Z,7.95
2017-04-18T05:50:34.420Z,7.05
2017-04-18T05:51:33.503Z,6.93
2017-04-18T05:52:32.609Z,8.67
2017-04-18T05:53:31.758Z,8.12
2017-04-18T05:54:30.863Z,8.77
2017-04-18T05:55:29.947Z,7.27
2017-04-18T05:56:29.032Z,8.17
2017-04-18T05:57:28.139Z,8.25
2017-04-18T05:58:27.960Z,7.43
2017-04-18T05:59:27.048Z,6.80
2017-04-18T06:00:26.124Z,6.83
2017-04-18T06:01:25.207Z,7.45
2017-04-18T06:02:24.299Z,6.30
2017-04-18T06:03:23.387Z,8.10
2017-04-18T06:05:27.972Z,8.22
2017-04-18T06:06:27.054Z,6.98
2017-04-18T06:07:26.215Z,6.90
2017-04-18T06:08:25.293Z,6.42
2017-04-18T06:09:24.805Z,7.52
2017-04-18T06:10:23.917Z,7.85
2017-04-18T06:11:22.997Z,7.52
2017-04-18T06:12:22.137Z,8.13
2017-04-18T06:13:21.246Z,6.93
2017-04-18T06:14:20.332Z,8.10
2017-04-18T06:15:19.415Z,8.10
2017-04-18T06:16:18.507Z,7.15
2017-04-18T06:17:17.611Z,7.83
2017-04-18T06:18:16.704Z,6.73
2017-04-18T06:19:16.528Z,7.32
2017-04-18T06:20:15.629Z,7.43
2017-04-18T06:21:14.717Z,7.78
2017-04-18T06:22:13.815Z,7.65
2017-04-18T06:23:12.956Z,6.73
2017-04-18T06:24:12.800Z,7.83
2017-04-18T06:25:11.883Z,7.35
2017-04-18T06:26:10.960Z,7.27
2017-04-18T06:27:10.043Z,8.35
2017-04-18T06:28:09.136Z,7.68
2017-04-18T06:29:08.235Z,8.25
2017-04-18T06:30:07.311Z,8.03
2017-04-18T06:31:06.387Z,9.18
2017-04-18T06:32:05.475Z,8.02
2017-04-18T06:33:04.568Z,9.35
2017-04-18T06:34:03.673Z,7.97
2017-04-18T06:35:02.788Z,9.55
2017-04-18T06:36:02.621Z,7.87
2017-04-18T06:37:01.721Z,8.22
2017-04-18T06:38:00.803Z,9.15
2017-04-18T06:38:59.892Z,9.72
2017-04-18T06:39:58.999Z,10.40
2017-04-18T06:40:58.124Z,8.57
2017-04-18T06:41:57.956Z,8.53
2017-04-18T06:42:57.064Z,9.88
2017-04-18T06:43:56.172Z,8.93
2017-04-18T06:44:55.259Z,9.68
2017-04-18T06:45:54.359Z,8.93
2017-04-18T06:46:54.180Z,8.60
2017-04-18T06:47:53.261Z,9.95
2017-04-18T06:48:52.353Z,10.83
2017-04-18T06:49:51.437Z,9.50
2017-04-18T06:50:50.568Z,11.27
2017-04-18T06:51:49.657Z,11.65
2017-04-18T06:52:48.749Z,9.02
2017-04-18T06:53:47.846Z,10.82
2017-04-18T06:54:46.948Z,10.68
2017-04-18T06:55:46.803Z,10.75
2017-04-18T06:56:45.933Z,10.75
2017-04-18T06:57:45.039Z,11.17
2017-04-18T06:58:45.095Z,10.15
2017-04-18T06:59:44.196Z,11.48
2017-04-18T07:00:43.312Z,10.90
2017-04-18T07:01:42.420Z,11.43
2017-04-18T07:02:41.576Z,11.82
2017-04-18T07:03:41.416Z,11.40
2017-04-18T07:04:40.511Z,11.02
2017-04-18T07:05:39.612Z,10.18
2017-04-18T07:06:38.713Z,12.25
2017-04-18T07:07:37.824Z,11.75
2017-04-18T07:08:37.655Z,11.58
2017-04-18T07:09:36.749Z,12.27
2017-04-18T07:10:35.835Z,12.38
2017-04-18T07:11:34.928Z,12.23
2017-04-18T07:12:34.039Z,11.92
2017-04-18T07:13:33.132Z,14.33
2017-04-18T07:14:32.228Z,13.00
2017-04-18T07:15:31.335Z,11.80
2017-04-18T07:16:30.431Z,11.80
2017-04-18T07:17:29.555Z,12.50
2017-04-18T07:18:28.644Z,14.02
2017-04-18T07:19:27.736Z,10.88
2017-04-18T07:20:26.839Z,13.02
2017-04-18T07:21:25.959Z,13.33
2017-04-18T07:22:25.088Z,12.17
2017-04-18T07:23:24.307Z,12.98
2017-04-18T07:24:24.155Z,12.97
2017-04-18T07:25:23.248Z,13.82
2017-04-18T07:26:22.352Z,13.00
2017-04-18T07:27:21.437Z,11.75
2017-04-18T07:28:20.555Z,12.67
2017-04-18T07:29:19.647Z,13.02
2017-04-18T07:30:18.736Z,13.30
2017-04-18T07:31:17.829Z,12.17
2017-04-18T07:32:16.958Z,12.20
2017-04-18T07:33:16.076Z,12.77
2017-04-18T07:34:15.908Z,10.87
2017-04-18T07:35:15.004Z,13.05
2017-04-18T07:36:14.095Z,12.23
2017-04-18T07:37:13.181Z,11.97
2017-04-18T07:38:12.279Z,14.13
2017-04-18T07:39:11.436Z,11.85
2017-04-18T07:40:10.865Z,10.98
2017-04-18T07:41:09.956Z,13.17
2017-04-18T07:42:09.044Z,13.20
2017-04-18T07:43:08.142Z,10.27
2017-04-18T07:44:07.260Z,10.93
2017-04-18T07:45:06.344Z,10.07
2017-04-18T07:46:05.441Z,10.88
2017-04-18T07:47:04.564Z,12.17
2017-04-18T07:48:03.653Z,11.63
2017-04-18T07:49:02.744Z,10.58
2017-04-18T07:50:01.889Z,11.52
2017-04-18T07:51:01.011Z,12.58
2017-04-18T07:52:00.104Z,9.60
2017-04-18T07:52:59.203Z,10.83
2017-04-18T07:53:58.319Z,10.45
2017-04-18T07:54:57.460Z,9.45
2017-04-18T07:55:56.572Z,8.67
2017-04-18T07:56:56.487Z,9.18
2017-04-18T07:57:55.604Z,9.05
2017-04-18T07:58:54.912Z,9.87
2017-04-18T07:59:55.884Z,9.68
2017-04-18T08:00:55.740Z,9.43
2017-04-18T08:01:54.840Z,8.88
2017-04-18T08:02:53.924Z,8.13
2017-04-18T08:03:53.060Z,8.20
2017-04-18T08:04:52.168Z,7.10
2017-04-18T08:05:51.268Z,6.42
2017-04-18T08:06:50.387Z,7.07
2017-04-18T08:07:49.479Z,7.97
2017-04-18T08:08:48.577Z,6.42
2017-04-18T08:09:47.664Z,7.90
2017-04-18T08:10:46.751Z,6.58
2017-04-18T08:11:45.843Z,6.80
2017-04-18T08:12:44.943Z,7.13
2017-04-18T08:13:44.037Z,7.08
2017-04-18T08:14:43.142Z,7.70
2017-04-18T08:15:42.227Z,6.73
2017-04-18T08:16:41.344Z,7.77
2017-04-18T08:17:41.176Z,8.50
2017-04-18T08:18:40.271Z,7.92
2017-04-18T08:19:39.364Z,9.43
2017-04-18T08:20:38.443Z,7.15
2017-04-18T08:21:37.523Z,8.47
2017-04-18T08:22:36.659Z,6.30
2017-04-18T08:23:35.759Z,7.72
2017-04-18T08:24:35.588Z,9.27
2017-04-18T08:25:34.963Z,8.12
2017-04-18T08:26:34.081Z,9.25
2017-04-18T08:27:33.185Z,8.18
2017-04-18T08:28:32.260Z,8.13
2017-04-18T08:29:31.363Z,7.72
2017-04-18T08:30:30.459Z,7.67
2017-04-18T08:31:29.540Z,8.70
2017-04-18T08:32:28.680Z,7.10
2017-04-18T08:33:27.782Z,6.97
2017-04-18T08:34:26.876Z,7.53
2017-04-18T08:35:26.425Z,7.38
2017-04-18T08:36:26.264Z,7.78
2017-04-18T08:37:25.372Z,6.13
2017-04-18T08:38:24.456Z,7.50
2017-04-18T08:39:23.541Z,6.23
2017-04-18T08:40:22.660Z,6.80
2017-04-18T08:41:22.488Z,7.12
2017-04-18T08:42:21.583Z,7.13
2017-04-18T08:43:20.687Z,6.68
2017-04-18T08:44:19.763Z,4.98
2017-04-18T08:45:18.845Z,7.42
2017-04-18T08:46:17.928Z,7.05
2017-04-18T08:47:17.012Z,5.80
2017-04-18T08:48:16.168Z,6.63
2017-04-18T08:49:16.113Z,6.62
2017-04-18T08:50:15.195Z,4.88
2017-04-18T08:51:14.302Z,6.10
2017-04-18T08:52:13.420Z,6.08
2017-04-18T08:53:13.240Z,5.75
2017-04-18T08:54:12.335Z,6.53
2017-04-18T08:55:11.415Z,6.35
2017-04-18T08:56:10.492Z,5.85
2017-04-18T08:57:09.571Z,6.97
2017-04-18T08:58:08.691Z,7.02
2017-04-18T08:59:07.905Z,7.45
2017-04-18T09:00:07.059Z,7.18
2017-04-18T09:01:06.143Z,6.93
2017-04-18T09:02:05.288Z,6.70
2017-04-18T09:03:04.388Z,8.45
2017-04-18T09:04:04.220Z,6.97
2017-04-18T09:05:03.343Z,6.95
2017-04-18T09:06:02.416Z,8.73
2017-04-18T09:07:01.502Z,8.13
2017-04-18T09:08:00.588Z,9.25
2017-04-18T09:08:59.674Z,8.28
2017-04-18T09:09:58.793Z,8.30
2017-04-18T09:10:58.641Z,8.87
2017-04-18T09:11:57.719Z,7.45
2017-04-18T09:12:56.803Z,7.63
2017-04-18T09:13:56.232Z,7.73
2017-04-18T09:14:55.453Z,8.68
2017-04-18T09:15:55.467Z,10.72
2017-04-18T09:16:54.552Z,8.90
2017-04-18T09:17:53.632Z,8.58
2017-04-18T09:18:53.458Z,8.98
2017-04-18T09:19:52.540Z,8.12
2017-04-18T09:20:51.948Z,8.18
2017-04-18T09:21:51.028Z,8.10
2017-04-18T09:22:50.118Z,8.18
2017-04-18T09:23:49.196Z,8.72
2017-04-18T09:24:48.295Z,7.83
2017-04-18T09:25:47.381Z,8.47
2017-04-18T09:26:47.248Z,8.85
2017-04-18T09:27:46.326Z,7.90
2017-04-18T09:28:46.152Z,7.38
2017-04-18T09:29:45.236Z,7.78
2017-04-18T09:30:44.354Z,8.23
2017-04-18T09:31:43.526Z,7.68
2017-04-18T09:32:42.612Z,7.70
2017-04-18T09:33:41.687Z,8.13
2017-04-18T09:34:40.805Z,6.82
2017-04-18T09:35:39.882Z,6.10
2017-04-18T09:36:38.956Z,6.62
2017-04-18T09:37:38.060Z,6.80
2017-04-18T09:38:37.158Z,6.53
2017-04-18T09:39:36.241Z,7.17
2017-04-18T09:40:35.328Z,6.85
2017-04-18T09:41:34.411Z,6.53
2017-04-18T09:42:33.528Z,5.95
2017-04-18T09:43:32.624Z,5.47
2017-04-18T09:44:31.716Z,7.13
2017-04-18T09:45:30.808Z,6.43
2017-04-18T09:46:29.900Z,4.43
2017-04-18T09:47:28.975Z,6.00
2017-04-18T09:48:28.088Z,5.20
2017-04-18T09:49:27.176Z,4.65
2017-04-18T09:50:26.352Z,6.60
2017-04-18T09:51:25.468Z,6.00
2017-04-18T09:52:24.580Z,5.93
2017-04-18T09:53:24.726Z,5.28
2017-04-18T09:54:23.832Z,6.27
2017-04-18T09:55:22.948Z,5.30
2017-04-18T09:56:22.476Z,5.35
2017-04-18T09:57:21.588Z,5.08
2017-04-18T09:58:20.697Z,5.03
2017-04-18T09:59:19.837Z,3.75
2017-04-18T10:00:19.152Z,4.03
2017-04-18T10:01:18.256Z,4.72
2017-04-18T10:02:17.376Z,4.38
2017-04-18T10:03:16.500Z,4.60
2017-04-18T10:04:15.944Z,5.30
2017-04-18T10:05:15.794Z,3.25
2017-04-18T10:06:14.905Z,3.63
2017-04-18T10:07:14.063Z,4.82
2017-04-18T10:08:13.164Z,4.47
2017-04-18T10:09:12.297Z,4.82
2017-04-18T10:10:12.176Z,3.45
2017-04-18T10:11:11.324Z,3.80
2017-04-18T10:12:10.452Z,4.07
2017-04-18T10:13:09.572Z,3.78
2017-04-18T10:14:08.686Z,4.10
2017-04-18T10:15:07.842Z,4.03
2017-04-18T10:16:06.952Z,3.67
2017-04-18T10:17:06.063Z,2.90
2017-04-18T10:18:05.184Z,2.60
2017-04-18T10:19:05.032Z,1.88
2017-04-18T10:20:04.139Z,1.52
2017-04-18T10:21:03.264Z,1.70
2017-04-18T10:22:02.366Z,1.02
2017-04-18T10:23:01.472Z,1.10
2017-04-18T10:24:00.588Z,1.33
2017-04-18T10:24:59.715Z,1.35
2017-04-18T10:25:58.856Z,1.30
2017-04-18T10:26:58.008Z,1.45
2017-04-18T10:27:57.116Z,1.47
2017-04-18T10:28:56.251Z,1.75
2017-04-18T10:29:56.092Z,1.53
2017-04-18T10:30:55.198Z,1.92
2017-04-18T10:31:54.339Z,1.65
2017-04-18T10:32:53.460Z,1.37
2017-04-18T10:33:52.569Z,1.48
2017-04-18T10:34:51.713Z,1.60
2017-04-18T10:35:50.820Z,1.78
2017-04-18T10:36:49.944Z,1.95
2017-04-18T10:37:49.061Z,1.53
2017-04-18T10:38:48.185Z,1.70
2017-04-18T10:39:47.295Z,1.48
2017-04-18T10:40:46.436Z,1.40
2017-04-18T10:41:45.543Z,1.90
2017-04-18T10:42:44.660Z,2.85
2017-04-18T10:43:44.508Z,1.80
2017-04-18T10:44:43.653Z,1.62
2017-04-18T10:45:43.572Z,1.30
2017-04-18T10:46:42.712Z,1.18
2017-04-18T10:47:41.859Z,1.67
2017-04-18T10:48:40.981Z,2.03
2017-04-18T10:49:40.095Z,1.60
2017-04-18T10:50:39.220Z,1.63
2017-04-18T10:51:38.325Z,1.43
2017-04-18T10:52:37.812Z,1.87
2017-04-18T10:53:36.915Z,1.08
2017-04-18T10:54:36.023Z,1.80
2017-04-18T10:55:35.132Z,1.65
2017-04-18T10:56:34.254Z,1.77
2017-04-18T10:57:33.404Z,1.52
2017-04-18T10:58:33.276Z,1.47
2017-04-18T10:59:32.380Z,1.05
2017-04-18T11:00:32.272Z,1.78
2017-04-18T11:01:31.392Z,1.20
2017-04-18T11:02:30.505Z,1.48
2017-04-18T11:03:29.656Z,1.72
2017-04-18T11:04:28.775Z,1.38
2017-04-18T11:05:27.888Z,2.03
2017-04-18T11:06:26.996Z,2.08
2017-04-18T11:07:26.120Z,1.70
2017-04-18T11:08:25.238Z,1.92
2017-04-18T11:09:24.372Z,2.95
2017-04-18T11:10:23.476Z,3.22
2017-04-18T11:11:22.594Z,4.18
2017-04-18T11:12:21.715Z,3.18
2017-04-18T11:13:21.564Z,3.18
2017-04-18T11:14:20.704Z,3.38
2017-04-18T11:15:19.812Z,3.50
2017-04-18T11:16:18.916Z,4.38
2017-04-18T11:17:18.061Z,3.47
2017-04-18T11:18:17.187Z,3.77
2017-04-18T11:19:16.343Z,4.23
2017-04-18T11:20:16.220Z,4.33
2017-04-18T11:21:15.359Z,4.15
2017-04-18T11:22:14.616Z,3.72
2017-04-18T11:23:14.824Z,5.10
2017-04-18T11:24:14.676Z,4.72
2017-04-18T11:25:13.811Z,4.23
2017-04-18T11:26:12.908Z,4.43
2017-04-18T11:27:12.760Z,4.13
2017-04-18T11:28:11.872Z,4.87
2017-04-18T11:29:10.984Z,3.77
2017-04-18T11:30:10.860Z,2.93
2017-04-18T11:31:09.985Z,2.03
2017-04-18T11:32:09.096Z,3.93
2017-04-18T11:33:08.204Z,3.30
2017-04-18T11:34:07.363Z,2.50
2017-04-18T11:35:06.480Z,3.05
2017-04-18T11:36:05.601Z,2.68
2017-04-18T11:37:04.716Z,2.50
2017-04-18T11:38:03.831Z,3.25
2017-04-18T11:39:03.000Z,1.38
2017-04-18T11:40:02.109Z,0.58
2017-04-18T11:41:01.209Z,3.65
2017-04-18T11:42:00.374Z,2.28
2017-04-18T11:42:59.491Z,1.97
2017-04-18T11:43:58.592Z,3.55
2017-04-18T11:44:57.695Z,2.93
2017-04-18T11:45:56.823Z,3.08
2017-04-18T11:46:55.956Z,3.40
2017-04-18T11:47:55.069Z,4.10
2017-04-18T11:48:54.181Z,3.58
2017-04-18T11:49:53.295Z,3.80
2017-04-18T11:50:53.168Z,3.97
2017-04-18T11:51:52.305Z,3.03
2017-04-18T11:52:51.438Z,2.23
2017-04-18T11:53:50.540Z,2.30
2017-04-18T11:54:49.647Z,2.25
2017-04-18T11:55:49.491Z,2.42
2017-04-18T11:56:48.597Z,2.30
2017-04-18T11:57:47.712Z,2.07
2017-04-18T11:58:46.807Z,2.68
2017-04-18T11:59:45.951Z,2.73
2017-04-18T12:00:45.056Z,2.45
2017-04-18T12:01:44.181Z,1.95
2017-04-18T12:02:43.308Z,2.53
2017-04-18T12:03:42.423Z,2.45
2017-04-18T12:04:41.616Z,2.75
2017-04-18T12:05:40.716Z,2.97
2017-04-18T12:06:39.820Z,2.43
2017-04-18T12:07:38.952Z,2.70
2017-04-18T12:08:38.059Z,2.17
2017-04-18T12:09:37.164Z,1.97
2017-04-18T12:10:36.284Z,2.40
2017-04-18T12:11:35.392Z,1.97
2017-04-18T12:12:34.503Z,2.17
2017-04-18T12:13:34.370Z,2.47
2017-04-18T12:14:33.481Z,2.50
2017-04-18T12:15:32.602Z,2.93
2017-04-18T12:16:31.713Z,2.98
2017-04-18T12:17:30.829Z,2.32
2017-04-18T12:18:29.959Z,3.15
2017-04-18T12:19:29.064Z,2.73
2017-04-18T12:20:28.227Z,2.60
2017-04-18T12:21:27.411Z,2.87
2017-04-18T12:22:26.524Z,2.70
2017-04-18T12:23:25.632Z,2.50
2017-04-18T12:24:24.751Z,2.77
2017-04-18T12:25:23.905Z,3.37
2017-04-18T12:26:23.007Z,2.93
2017-04-18T12:27:22.119Z,3.57
2017-04-18T12:28:21.977Z,3.52
2017-04-18T12:29:21.108Z,4.18
2017-04-18T12:30:20.956Z,3.48
2017-04-18T12:31:20.060Z,3.72
2017-04-18T12:32:19.172Z,3.37
2017-04-18T12:33:19.023Z,3.57
2017-04-18T12:34:18.132Z,3.40
2017-04-18T12:35:17.272Z,2.57
2017-04-18T12:36:16.383Z,3.18
2017-04-18T12:37:15.487Z,3.42
2017-04-18T12:38:14.603Z,3.93
2017-04-18T12:39:14.452Z,3.25
2017-04-18T12:40:13.800Z,3.90
2017-04-18T12:41:13.648Z,3.57
2017-04-18T12:42:12.756Z,2.70
2017-04-18T12:43:11.867Z,2.82
2017-04-18T12:44:10.984Z,2.90
2017-04-18T12:45:10.088Z,3.78
2017-04-18T12:46:09.208Z,2.45
2017-04-18T12:47:08.320Z,2.53
2017-04-18T12:48:08.167Z,2.88
2017-04-18T12:49:07.374Z,2.57
2017-04-18T12:50:06.484Z,2.43
2017-04-18T12:51:05.644Z,2.47
2017-04-18T12:52:04.819Z,2.80
2017-04-18T12:53:03.928Z,2.67
2017-04-18T12:54:03.034Z,2.75
2017-04-18T12:55:02.144Z,2.77
2017-04-18T12:56:01.251Z,2.32
2017-04-18T12:57:00.372Z,3.30
2017-04-18T12:57:59.476Z,3.77
2017-04-18T12:58:58.579Z,2.87
2017-04-18T12:59:57.691Z,2.53
2017-04-18T13:00:56.883Z,2.67
2017-04-18T13:01:56.019Z,2.65
2017-04-18T13:02:55.215Z,2.65
2017-04-18T13:03:55.072Z,2.70
2017-04-18T13:04:54.213Z,1.97
2017-04-18T13:05:53.319Z,2.12
2017-04-18T13:06:52.427Z,2.42